Houston, TX

11:52 AM CDT em 23 de Julho de 2016 (GMT -0500)
George Bush Intercontinental-Houston Airport | | Change Station

Elev 108 ft 29.98 °N, 95.34 °W | Updated 59 minutes ago

Scattered Clouds
Nuvens Dispersas
90 °F
Aparente 98 °F
N
4
Vento Variável Vento de SSO

Hoje
Máxima -- | Mínima -- °F
--% Possibilidade de Precip.
Ontem
Máxima -- | Mínima -- °F
Precip. -- pol
Pressão 30.01 pol
Visibilidade 10.0 milhas
Nuvens Nuvens Dispersas 3200 ft
Nuvens Dispersas 25000 ft
Índice de Calor 98 °F
Ponto de Orvalho 73 °F
Humidade 57%
Chuva 0.00 pol
Altura de Neve Não disponível
6:35 AM 8:20 PM
Lua minguante, 84% visible
METAR KIAH 231553Z 21003KT 10SM SCT032 SCT250 32/23 A3001 RMK AO2 SLP161 T03220228
Pressão 30.01 pol
Visibilidade 10.0 milhas
Nuvens Nuvens Dispersas 3200 ft
Nuvens Dispersas 25000 ft
Índice de Calor 98 °F
Ponto de Orvalho 73 °F
Humidade 57%
Chuva 0.00 pol
Altura de Neve Não disponível
6:35 AM 8:20 PM
Lua minguante, 84% visible
METAR KIAH 231553Z 21003KT 10SM SCT032 SCT250 32/23 A3001 RMK AO2 SLP161 T03220228

10-Day Weather Forecast

Almanac

Astronomia

Jul. 23, 2016 Nascer Pôr
Hora atual
Crepúsculo civil
Crepúsculo náutico
Crepúsculo astronómico
Lua
Comprimento da luz visível
Duração do Dia
Tomorrow will be .
, % of the Moon is Illuminated

Extremos de Hoje

situação na parte mais alta situação na parte mais baixa

Community

WunderPhotos

Upload Photos

1,926,861 fotografias inseridas!

WunderBlog® & News

Nearby

Qualidade do Ar

  Qualidade do Ar Índice da Q.A. Poluente
Not available.

Altura da Neve

Estação altura Altitude

Actividade Sísmisca

Cidade Distância Mag. Hora & Data
Mínima magnitude apresentada é 2.5.

Temperaturas das Águas Costeiras

Local Temperatura

Stations

Estações Meteorológicas Próximas

Localização da Estação Temp. Sensação Térmica Ponto de Orvalho Humidade Vento Precip. Elev Actualizado Tipo
                   

Watches & Warnings

There are currently no watches in effect.